Lifjell — 3YWB — position and weather

sailwx.info

Track history (hours):
 
Tides and Currents Weather Stations Pressure Air Temp Water Temp Dewpoint Dewpoint Depression Visibility Wind Speed Wind Dir Waves Ship Positions

Lifjell

Last reported at 2018-Apr-20 16:30 UTC. Time now 2018-Apr-20 16:47 UTC.
Position N 68°17' E 015°45'.

Length 63 m; draft 5.2 m.

Type: Cargo ship. MMSI: 259091000.

Date/timePositionNaut miles runAvg speedWind from/ knotsBaromVisibWave heightAir tempDewpointWater temp
2018-Apr-20 16:30N 68°17' E 015°45'5 9.3
2018-Apr-20 16:00N 68°20' E 015°54'5 9.8
2018-Apr-20 15:30N 68°24' E 016°02'5 9.6
2018-Apr-20 15:00N 68°29' E 016°06'5 9.1
2018-Apr-20 14:29N 68°33' E 016°13'4 8.5
2018-Apr-20 14:00N 68°34' E 016°24'3 6.7
2018-Apr-20 13:29N 68°35' E 016°32'4 9.2
2018-Apr-20 13:00N 68°39' E 016°37'5 9.3
2018-Apr-20 12:29N 68°42' E 016°49'5 9.6
2018-Apr-20 12:00N 68°44' E 017°00'4 7.4
2018-Apr-20 11:30N 68°46' E 017°09'0 0.0
2018-Apr-20 11:00N 68°46' E 017°09'0 0.1
2018-Apr-20 10:29N 68°46' E 017°09'0 0.0
2018-Apr-20 09:59N 68°46' E 017°09'0 0.0
2018-Apr-20 09:30N 68°46' E 017°09'2 4.4
2018-Apr-20 08:59N 68°44' E 017°04'4 7.3
2018-Apr-20 08:30N 68°44' E 016°55'0 0.0
2018-Apr-20 08:00N 68°44' E 016°55'0 0.0
2018-Apr-20 07:29N 68°44' E 016°55'0 0.0
2018-Apr-20 07:00N 68°44' E 016°55'0 0.0
2018-Apr-20 06:30N 68°44' E 016°55'0 0.0
2018-Apr-20 06:00N 68°44' E 016°55'0 0.9
2018-Apr-20 05:30N 68°44' E 016°56'0 0.7
2018-Apr-20 05:00N 68°44' E 016°57'1 1.2
2018-Apr-20 04:31N 68°43' E 016°59'0 0.3
2018-Apr-20 04:00N 68°43' E 016°58'0 0.3
2018-Apr-20 03:30N 68°44' E 016°59'0 0.9
2018-Apr-20 03:00N 68°44' E 016°60'1 3.0
2018-Apr-20 02:30N 68°44' E 017°04'0 0.6
2018-Apr-20 02:00N 68°44' E 017°04'0 0.0
2018-Apr-20 01:30N 68°44' E 017°04'0 0.5
2018-Apr-20 01:00N 68°44' E 017°05'2 3.4
2018-Apr-20 00:30N 68°44' E 017°09'2 4.0
2018-Apr-19 23:59N 68°44' E 017°15'2 4.1
2018-Apr-19 23:30N 68°44' E 017°20'2 0.8
2018-Apr-19 20:57N 68°43' E 017°26'2 4.2
2018-Apr-19 20:30N 68°44' E 017°21'0 0.0
2018-Apr-19 20:00N 68°44' E 017°21'0 0.0
2018-Apr-19 19:30N 68°44' E 017°21'0 0.0
2018-Apr-19 19:00N 68°44' E 017°21'1 1.6
2018-Apr-19 18:30N 68°44' E 017°19'3 5.3
2018-Apr-19 18:00N 68°46' E 017°14'2 4.9
2018-Apr-19 17:30N 68°48' E 017°19'3 6.1
2018-Apr-19 17:00N 68°50' E 017°25'3 6.2
2018-Apr-19 16:30N 68°52' E 017°31'3 6.0
2018-Apr-19 16:00N 68°54' E 017°38'0 0.9
2018-Apr-19 15:30N 68°54' E 017°39'2 3.3
2018-Apr-19 15:00N 68°54' E 017°43'1 1.7
2018-Apr-19 14:30N 68°54' E 017°41'0 0.4
2018-Apr-19 14:00N 68°54' E 017°41'0 0.0
2018-Apr-19 13:30N 68°54' E 017°41'0 0.0
2018-Apr-19 13:00N 68°54' E 017°41'1 2.0
2018-Apr-19 12:30N 68°54' E 017°39'4 9.1
2018-Apr-19 12:00N 68°51' E 017°29'5 7.1
2018-Apr-19 11:22N 68°48' E 017°37'1 0.2
2018-Apr-19 08:17N 68°47' E 017°38'0 0.0
2018-Apr-19 06:53N 68°47' E 017°38'0 0.1
2018-Apr-19 06:30N 68°47' E 017°39'1 1.3
2018-Apr-19 06:00N 68°48' E 017°37'1 1.9
2018-Apr-19 05:23N 68°48' E 017°35'1 3.0
2018-Apr-19 04:58N 68°49' E 017°32'2 3.1
2018-Apr-19 04:28N 68°50' E 017°28'1 2.0
2018-Apr-19 04:00N 68°50' E 017°26'0 0.4
2018-Apr-19 03:30N 68°50' E 017°26'0 0.4
2018-Apr-19 03:00N 68°50' E 017°27'0 0.5
2018-Apr-19 02:30N 68°50' E 017°27'1 1.1
2018-Apr-19 02:00N 68°50' E 017°25'0 0.5
2018-Apr-19 01:30N 68°50' E 017°25'0 0.4
2018-Apr-19 01:00N 68°50' E 017°25'1 1.4
2018-Apr-19 00:30N 68°49' E 017°23'2 3.9
2018-Apr-19 00:00N 68°48' E 017°19'2 4.0
2018-Apr-18 23:29N 68°47' E 017°15'2 3.3
2018-Apr-18 23:00N 68°45' E 017°15'2 3.4
2018-Apr-18 22:30N 68°44' E 017°19'2 3.4
2018-Apr-18 22:00N 68°44' E 017°24'1 0.4
2018-Apr-18 19:57N 68°43' E 017°26'4 8.5
2018-Apr-18 19:30N 68°45' E 017°16'4 8.8
2018-Apr-18 19:00N 68°48' E 017°10'4 9.0
2018-Apr-18 18:30N 68°52' E 017°03'4 8.5
2018-Apr-18 18:00N 68°52' E 016°51'4 8.6
2018-Apr-18 17:30N 68°51' E 016°40'1 1.4
2018-Apr-18 17:00N 68°52' E 016°40'0 0.0
2018-Apr-18 16:30N 68°52' E 016°40'0 0.0
2018-Apr-18 16:00N 68°52' E 016°40'0 0.3
2018-Apr-18 15:30N 68°52' E 016°40'0 0.3
2018-Apr-18 15:00N 68°52' E 016°40'1 2.6
2018-Apr-18 14:30N 68°51' E 016°38'3 6.6
2018-Apr-18 14:00N 68°48' E 016°33'0 0.0
2018-Apr-18 13:28N 68°48' E 016°33'0 0.0
2018-Apr-18 12:58N 68°48' E 016°33'0 0.0
2018-Apr-18 12:28N 68°48' E 016°33'0 0.0
2018-Apr-18 11:58N 68°48' E 016°33'0 0.0
2018-Apr-18 11:28N 68°48' E 016°33'0 0.0
2018-Apr-18 10:58N 68°48' E 016°33'0 0.0
2018-Apr-18 10:28N 68°48' E 016°33'0 0.0
2018-Apr-18 09:58N 68°48' E 016°33'0 0.0
2018-Apr-18 09:28N 68°48' E 016°33'0 0.0
2018-Apr-18 08:58N 68°48' E 016°33'0 0.0
2018-Apr-18 08:28N 68°48' E 016°33'0 0.0
2018-Apr-18 07:58N 68°48' E 016°33'0 0.0
2018-Apr-18 07:28N 68°48' E 016°33'0 0.0
2018-Apr-18 06:58N 68°48' E 016°33'0 0.0
2018-Apr-18 06:28N 68°48' E 016°33'0 0.0
2018-Apr-18 05:58N 68°48' E 016°33'0 0.0
2018-Apr-18 05:28N 68°48' E 016°33'0 0.0
2018-Apr-18 04:58N 68°48' E 016°33'0 0.0
2018-Apr-18 04:28N 68°48' E 016°33'0 0.0
2018-Apr-18 03:58N 68°48' E 016°33'0 0.0
2018-Apr-18 03:28N 68°48' E 016°33'0 0.0
2018-Apr-18 02:58N 68°48' E 016°33'0 0.0
2018-Apr-18 02:28N 68°48' E 016°33'0 0.0
2018-Apr-18 01:58N 68°48' E 016°33'0 0.0
2018-Apr-18 01:28N 68°48' E 016°33'0 0.0
2018-Apr-18 00:58N 68°48' E 016°33'0 0.0
2018-Apr-18 00:28N 68°48' E 016°33'0 0.0
2018-Apr-17 23:58N 68°48' E 016°33'0 0.0
2018-Apr-17 23:28N 68°48' E 016°33'0 0.0
2018-Apr-17 22:58N 68°48' E 016°33'0 0.0
2018-Apr-17 22:28N 68°48' E 016°33'0 0.0
2018-Apr-17 21:58N 68°48' E 016°33'0 0.0
2018-Apr-17 21:28N 68°48' E 016°33'0 0.0
2018-Apr-17 20:58N 68°48' E 016°33'0 0.0
2018-Apr-17 20:28N 68°48' E 016°33'0 0.0
2018-Apr-17 19:58N 68°48' E 016°33'0 0.0
2018-Apr-17 19:28N 68°48' E 016°33'0 0.0
2018-Apr-17 18:58N 68°48' E 016°33'0 0.0
2018-Apr-17 18:28N 68°48' E 016°33'0 0.0
2018-Apr-17 18:00N 68°48' E 016°33'0 0.0
2018-Apr-17 17:30N 68°48' E 016°33'0 0.0
2018-Apr-17 17:00N 68°48' E 016°33'0 0.0
2018-Apr-17 16:29N 68°48' E 016°33'0 0.0
2018-Apr-17 16:00N 68°48' E 016°33'0 0.0
2018-Apr-17 15:30N 68°48' E 016°33'0 0.0
2018-Apr-17 15:00N 68°48' E 016°33'0 0.0
2018-Apr-17 14:30N 68°48' E 016°33'0 0.0
2018-Apr-17 14:00N 68°48' E 016°33'0 0.0
2018-Apr-17 13:30N 68°48' E 016°33'0 0.0
2018-Apr-17 13:00N 68°48' E 016°33'0 0.0
2018-Apr-17 12:30N 68°48' E 016°33'0 0.0
2018-Apr-17 12:00N 68°48' E 016°33'0 0.0
2018-Apr-17 11:30N 68°48' E 016°33'0 0.0
2018-Apr-17 11:00N 68°48' E 016°33'0 0.0
2018-Apr-17 10:30N 68°48' E 016°33'0 0.0
2018-Apr-17 10:00N 68°48' E 016°33'0 0.0
2018-Apr-17 09:29N 68°48' E 016°33'0 0.0
2018-Apr-17 09:00N 68°48' E 016°33'0 0.0
2018-Apr-17 08:30N 68°48' E 016°33'0 0.0
2018-Apr-17 07:59N 68°48' E 016°33'0 0.0
2018-Apr-17 07:30N 68°48' E 016°33'0 0.0
2018-Apr-17 07:00N 68°48' E 016°33'0 0.0
2018-Apr-17 06:30N 68°48' E 016°33'0 0.0
2018-Apr-17 06:00N 68°48' E 016°33'0 0.0
2018-Apr-17 05:30N 68°48' E 016°33'0 0.0
2018-Apr-17 05:00N 68°48' E 016°33'2 3.3
2018-Apr-17 04:30N 68°49' E 016°37'1 2.9
2018-Apr-17 04:00N 68°50' E 016°40'3 5.5
2018-Apr-17 03:30N 68°51' E 016°47'3 6.6
2018-Apr-17 03:00N 68°52' E 016°56'3 5.8
2018-Apr-17 02:30N 68°52' E 017°04'4 6.9
2018-Apr-17 01:59N 68°49' E 017°09'3 6.2
2018-Apr-17 01:29N 68°46' E 017°11'1 1.8
2018-Apr-17 00:59N 68°46' E 017°09'0 0.0
2018-Apr-17 00:29N 68°46' E 017°09'0 0.1
2018-Apr-16 23:58N 68°46' E 017°09'0 0.0
2018-Apr-16 23:30N 68°46' E 017°09'1 1.4
2018-Apr-16 23:00N 68°45' E 017°08'4 9.2
2018-Apr-16 22:30N 68°44' E 016°56'1 1.2
2018-Apr-16 21:59N 68°44' E 016°55'0 0.0
2018-Apr-16 21:29N 68°44' E 016°55'0 0.0
2018-Apr-16 21:00N 68°44' E 016°55'0 0.0
2018-Apr-16 20:30N 68°44' E 016°55'0 0.0
2018-Apr-16 20:00N 68°44' E 016°55'0 0.0
2018-Apr-16 19:30N 68°44' E 016°55'1 1.9
2018-Apr-16 19:00N 68°44' E 016°57'3 6.0
2018-Apr-16 18:29N 68°44' E 017°05'4 8.3
2018-Apr-16 18:00N 68°47' E 017°15'4 8.2
2018-Apr-16 17:30N 68°49' E 017°24'3 5.6
2018-Apr-16 17:00N 68°51' E 017°29'2 3.8
2018-Apr-16 16:30N 68°52' E 017°33'2 3.5
2018-Apr-16 16:00N 68°54' E 017°36'1 2.9
2018-Apr-16 15:30N 68°54' E 017°40'0 0.9
2018-Apr-16 15:00N 68°54' E 017°41'0 0.0
2018-Apr-16 14:29N 68°54' E 017°41'0 0.0
2018-Apr-16 14:00N 68°54' E 017°41'0 0.0
2018-Apr-16 13:30N 68°54' E 017°41'2 4.3
2018-Apr-16 13:00N 68°53' E 017°36'5 9.0
2018-Apr-16 12:30N 68°50' E 017°28'5 9.0
2018-Apr-16 11:57N 68°47' E 017°39'0 0.7
2018-Apr-16 11:30N 68°47' E 017°38'0 0.0
2018-Apr-16 06:56N 68°47' E 017°38'4 7.9
2018-Apr-16 06:29N 68°49' E 017°30'4 8.9
2018-Apr-16 06:00N 68°48' E 017°19'4 7.2
2018-Apr-16 05:30N 68°44' E 017°19'3 0.2
2018-Apr-15 12:36N 68°42' E 017°27'1 1.6
2018-Apr-15 12:03N 68°43' E 017°27'0 2.1
2018-Apr-15 12:00N 68°43' E 017°27'0 0.1
2018-Apr-15 08:54N 68°43' E 017°26'2 4.1
2018-Apr-15 08:28N 68°44' E 017°21'0 0.0
2018-Apr-15 07:58N 68°44' E 017°21'0 0.0
2018-Apr-15 07:28N 68°44' E 017°21'0 0.0
2018-Apr-15 07:00N 68°44' E 017°21'3 6.3
2018-Apr-15 06:30N 68°46' E 017°14'4 8.4
2018-Apr-15 06:00N 68°49' E 017°22'5 9.7
2018-Apr-15 05:30N 68°52' E 017°32'4 8.7
2018-Apr-15 05:00N 68°54' E 017°42'0 0.5
2018-Apr-15 04:29N 68°54' E 017°43'0 0.0
2018-Apr-15 03:47N 68°54' E 017°43'0 0.0
2018-Apr-15 03:29N 68°54' E 017°43'0 0.0
2018-Apr-15 02:59N 68°54' E 017°43'0 0.0
2018-Apr-15 02:29N 68°54' E 017°43'0 0.0
2018-Apr-15 01:59N 68°54' E 017°43'0 0.0
2018-Apr-15 01:29N 68°54' E 017°43'0 0.0
2018-Apr-15 00:59N 68°54' E 017°43'0 0.0
2018-Apr-15 00:29N 68°54' E 017°43'0 0.0
2018-Apr-14 23:53N 68°54' E 017°43'0 0.0
2018-Apr-14 23:23N 68°54' E 017°43'0 0.0
2018-Apr-14 22:53N 68°54' E 017°43'0 0.0
2018-Apr-14 22:29N 68°54' E 017°43'0 0.0
2018-Apr-14 21:47N 68°54' E 017°43'0 0.0
2018-Apr-14 21:29N 68°54' E 017°43'0 0.0
2018-Apr-14 20:53N 68°54' E 017°43'0 0.0
2018-Apr-14 20:29N 68°54' E 017°43'0 0.0
2018-Apr-14 19:53N 68°54' E 017°43'0 0.0
2018-Apr-14 19:29N 68°54' E 017°43'0 0.0
2018-Apr-14 18:59N 68°54' E 017°43'0 0.0
2018-Apr-14 18:17N 68°54' E 017°43'0 0.0
2018-Apr-14 17:59N 68°54' E 017°43'0 0.0
2018-Apr-14 17:29N 68°54' E 017°43'0 0.0
2018-Apr-14 16:59N 68°54' E 017°43'0 0.0
2018-Apr-14 16:23N 68°54' E 017°43'0 0.0
2018-Apr-14 15:59N 68°54' E 017°43'0 0.0
2018-Apr-14 15:17N 68°54' E 017°43'0 0.0
2018-Apr-14 14:47N 68°54' E 017°43'0 0.0
2018-Apr-14 14:23N 68°54' E 017°43'0 0.0
2018-Apr-14 13:35N 68°54' E 017°43'0 0.0
2018-Apr-14 13:23N 68°54' E 017°43'0 0.0
2018-Apr-14 12:59N 68°54' E 017°43'0 0.0
2018-Apr-14 12:23N 68°54' E 017°43'0 0.0
2018-Apr-14 11:59N 68°54' E 017°43'0 0.0
2018-Apr-14 11:29N 68°54' E 017°43'0 0.0
2018-Apr-14 10:59N 68°54' E 017°43'0 0.0
2018-Apr-14 10:29N 68°54' E 017°43'0 0.0
2018-Apr-14 09:53N 68°54' E 017°43'0 0.0
2018-Apr-14 08:23N 68°54' E 017°43'0 0.0
2018-Apr-14 07:59N 68°54' E 017°43'0 0.0
2018-Apr-14 07:29N 68°54' E 017°43'0 0.0
2018-Apr-14 06:59N 68°54' E 017°43'0 0.0
2018-Apr-14 06:11N 68°54' E 017°43'0 0.0
2018-Apr-14 05:59N 68°54' E 017°43'0 0.0
2018-Apr-14 05:29N 68°54' E 017°43'0 0.0
2018-Apr-14 04:53N 68°54' E 017°43'0 0.0
2018-Apr-14 04:29N 68°54' E 017°43'0 0.0
2018-Apr-14 03:59N 68°54' E 017°43'0 0.0
2018-Apr-14 03:29N 68°54' E 017°43'0 0.0
2018-Apr-14 02:59N 68°54' E 017°43'0 0.0
2018-Apr-14 02:29N 68°54' E 017°43'0 0.0
2018-Apr-14 01:59N 68°54' E 017°43'0 0.0
2018-Apr-14 01:29N 68°54' E 017°43'0 0.0
2018-Apr-14 00:59N 68°54' E 017°43'0 0.0
2018-Apr-14 00:26N 68°54' E 017°43'0 0.0
2018-Apr-13 23:59N 68°54' E 017°43'0 0.0
2018-Apr-13 23:29N 68°54' E 017°43'0 0.0
2018-Apr-13 22:59N 68°54' E 017°43'0 0.0
2018-Apr-13 22:29N 68°54' E 017°43'0 0.0
2018-Apr-13 21:59N 68°54' E 017°43'0 0.0
2018-Apr-13 21:29N 68°54' E 017°43'0 0.0
2018-Apr-13 20:53N 68°54' E 017°43'0 0.0
2018-Apr-13 20:29N 68°54' E 017°43'0 0.0
2018-Apr-13 19:59N 68°54' E 017°43'0 0.0
2018-Apr-13 19:29N 68°54' E 017°43'0 0.0
2018-Apr-13 18:59N 68°54' E 017°43'0 0.0
2018-Apr-13 18:29N 68°54' E 017°43'0 0.0
2018-Apr-13 17:59N 68°54' E 017°43'0 0.0
2018-Apr-13 17:29N 68°54' E 017°43'0 0.0
2018-Apr-13 16:59N 68°54' E 017°43'0 0.0
2018-Apr-13 16:29N 68°54' E 017°43'0 0.0
2018-Apr-13 15:59N 68°54' E 017°43'0 0.0
2018-Apr-13 15:29N 68°54' E 017°43'0 0.0
2018-Apr-13 14:56N 68°54' E 017°43'0 0.5
2018-Apr-13 14:30N 68°55' E 017°43'0 0.1
2018-Apr-13 14:00N 68°55' E 017°43'1 1.9
2018-Apr-13 13:30N 68°54' E 017°41'0 0.0
2018-Apr-13 13:00N 68°54' E 017°41'0 0.0
2018-Apr-13 12:30N 68°54' E 017°41'0 0.0
2018-Apr-13 12:00N 68°54' E 017°41'2 3.2
2018-Apr-13 11:30N 68°54' E 017°37'5 9.0
2018-Apr-13 11:00N 68°51' E 017°28'5 1.2
2018-Apr-13 06:41N 68°47' E 017°38'0 1.9
2018-Apr-13 06:30N 68°47' E 017°38'0 0.3
2018-Apr-13 05:56N 68°47' E 017°38'0 0.4
2018-Apr-13 05:29N 68°47' E 017°38'1 1.8
2018-Apr-13 04:52N 68°48' E 017°35'1 2.3
2018-Apr-13 04:27N 68°49' E 017°33'2 3.4
2018-Apr-13 04:00N 68°49' E 017°30'2 3.4
2018-Apr-13 03:30N 68°50' E 017°25'2 3.4
2018-Apr-13 03:00N 68°49' E 017°22'2 3.9
2018-Apr-13 02:30N 68°47' E 017°18'2 4.8
2018-Apr-13 02:00N 68°45' E 017°15'2 5.1
2018-Apr-13 01:30N 68°44' E 017°21'2 0.7
2018-Apr-12 22:34N 68°43' E 017°26'1 8.3
2018-Apr-12 22:29N 68°44' E 017°25'4 8.2
2018-Apr-12 22:00N 68°45' E 017°14'4 8.7
2018-Apr-12 21:30N 68°49' E 017°09'4 8.6
2018-Apr-12 21:00N 68°53' E 017°02'4 8.7
2018-Apr-12 20:29N 68°52' E 016°50'4 7.4
2018-Apr-12 20:00N 68°52' E 016°40'0 0.4
2018-Apr-12 19:30N 68°52' E 016°40'0 0.0
2018-Apr-12 19:00N 68°52' E 016°40'0 0.0
2018-Apr-12 18:30N 68°52' E 016°40'0 0.0
2018-Apr-12 18:00N 68°52' E 016°40'0 0.0
2018-Apr-12 17:30N 68°52' E 016°40'0 0.0
2018-Apr-12 16:59N 68°52' E 016°40'0 0.0
2018-Apr-12 16:30N 68°52' E 016°40'0 0.0
2018-Apr-12 16:00N 68°52' E 016°40'0 0.0
2018-Apr-12 15:30N 68°52' E 016°40'0 0.0
2018-Apr-12 15:00N 68°52' E 016°40'0 0.0
2018-Apr-12 14:30N 68°52' E 016°40'0 0.0
2018-Apr-12 14:00N 68°52' E 016°40'1 1.5
2018-Apr-12 13:30N 68°51' E 016°40'2 3.7
2018-Apr-12 13:00N 68°51' E 016°45'2 4.5
2018-Apr-12 12:30N 68°52' E 016°51'3 5.7
2018-Apr-12 12:00N 68°52' E 016°59'2 4.9
2018-Apr-12 11:30N 68°51' E 017°05'3 5.3
2018-Apr-12 11:00N 68°49' E 017°09'2 5.0
2018-Apr-12 10:30N 68°47' E 017°12'2 3.1
2018-Apr-12 10:00N 68°46' E 017°09'0 0.1
2018-Apr-12 09:30N 68°46' E 017°09'0 0.0
2018-Apr-12 09:00N 68°46' E 017°09'0 0.1
2018-Apr-12 08:30N 68°46' E 017°09'0 0.6
2018-Apr-12 08:00N 68°45' E 017°09'5 9.0
2018-Apr-12 07:30N 68°44' E 016°57'1 2.3
2018-Apr-12 07:00N 68°44' E 016°54'0 0.0
2018-Apr-12 06:30N 68°44' E 016°54'0 0.0
2018-Apr-12 05:59N 68°44' E 016°54'0 0.0
2018-Apr-12 05:30N 68°44' E 016°54'0 0.0
2018-Apr-12 05:00N 68°44' E 016°54'1 2.0
2018-Apr-12 04:29N 68°43' E 016°52'4 8.1
2018-Apr-12 04:00N 68°46' E 016°43'5 9.2
2018-Apr-12 03:30N 68°48' E 016°33'0 0.3
2018-Apr-12 02:58N 68°48' E 016°33'0 0.0
2018-Apr-12 02:28N 68°48' E 016°33'0 0.0
2018-Apr-12 01:58N 68°48' E 016°33'0 0.0
2018-Apr-12 01:31N 68°48' E 016°33'0 0.0
2018-Apr-12 00:58N 68°48' E 016°33'0 0.0
2018-Apr-12 00:31N 68°48' E 016°33'0 0.0
2018-Apr-12 00:01N 68°48' E 016°33'0 0.0
2018-Apr-11 23:31N 68°48' E 016°33'0 0.0
2018-Apr-11 22:58N 68°48' E 016°33'0 0.0
2018-Apr-11 22:27N 68°48' E 016°33'0 0.0
2018-Apr-11 21:57N 68°48' E 016°33'0 0.0
2018-Apr-11 21:31N 68°48' E 016°33'0 0.0
2018-Apr-11 20:58N 68°48' E 016°33'0 0.0
2018-Apr-11 20:31N 68°48' E 016°33'0 0.0
2018-Apr-11 20:01N 68°48' E 016°33'0 0.7
2018-Apr-11 19:30N 68°48' E 016°34'1 1.2
2018-Apr-11 19:00N 68°48' E 016°34'0 0.0
2018-Apr-11 18:30N 68°48' E 016°34'0 0.0
2018-Apr-11 18:00N 68°48' E 016°34'1 1.2
2018-Apr-11 17:30N 68°48' E 016°33'0 0.5
2018-Apr-11 16:59N 68°48' E 016°33'0 0.0
2018-Apr-11 16:28N 68°48' E 016°33'0 0.0
2018-Apr-11 15:58N 68°48' E 016°33'0 0.0
2018-Apr-11 15:28N 68°48' E 016°33'0 0.0
2018-Apr-11 14:58N 68°48' E 016°33'0 0.0
2018-Apr-11 14:28N 68°48' E 016°33'0 0.0
2018-Apr-11 13:58N 68°48' E 016°33'0 0.0
2018-Apr-11 13:28N 68°48' E 016°33'0 0.0
2018-Apr-11 12:58N 68°48' E 016°33'0 0.0
2018-Apr-11 12:28N 68°48' E 016°33'0 0.0
2018-Apr-11 11:58N 68°48' E 016°33'0 0.0
2018-Apr-11 11:28N 68°48' E 016°33'0 0.0
2018-Apr-11 10:58N 68°48' E 016°33'0 0.0
2018-Apr-11 10:28N 68°48' E 016°33'0 0.0
2018-Apr-11 09:58N 68°48' E 016°33'0 0.0
2018-Apr-11 09:28N 68°48' E 016°33'0 0.0
2018-Apr-11 08:58N 68°48' E 016°33'0 0.0
2018-Apr-11 08:28N 68°48' E 016°33'0 0.0
2018-Apr-11 07:58N 68°48' E 016°33'0 0.0
2018-Apr-11 07:28N 68°48' E 016°33'0 0.0
2018-Apr-11 06:58N 68°48' E 016°33'0 0.0
2018-Apr-11 06:28N 68°48' E 016°33'0 0.0
2018-Apr-11 05:58N 68°48' E 016°33'0 0.0
2018-Apr-11 05:28N 68°48' E 016°33'0 0.0
2018-Apr-11 04:58N 68°48' E 016°33'0 0.0
2018-Apr-11 04:28N 68°48' E 016°33'0 0.0
2018-Apr-11 03:58N 68°48' E 016°33'0 0.0
2018-Apr-11 03:28N 68°48' E 016°33'0 0.0
2018-Apr-11 02:58N 68°48' E 016°33'0 0.0
2018-Apr-11 02:28N 68°48' E 016°33'0 0.0
2018-Apr-11 01:58N 68°48' E 016°33'0 0.0
2018-Apr-11 01:28N 68°48' E 016°33'0 0.0
2018-Apr-11 00:58N 68°48' E 016°33'0 0.0
2018-Apr-11 00:28N 68°48' E 016°33'0 0.0
2018-Apr-10 23:58N 68°48' E 016°33'0 0.0
2018-Apr-10 23:28N 68°48' E 016°33'0 0.0
2018-Apr-10 22:58N 68°48' E 016°33'0 0.0
2018-Apr-10 22:28N 68°48' E 016°33'0 0.0
2018-Apr-10 21:58N 68°48' E 016°33'0 0.0
2018-Apr-10 21:28N 68°48' E 016°33'0 0.0
2018-Apr-10 21:01N 68°48' E 016°33'0 0.0
2018-Apr-10 20:28N 68°48' E 016°33'0 0.0
2018-Apr-10 19:58N 68°48' E 016°33'0 0.0
2018-Apr-10 19:28N 68°48' E 016°33'0 0.0
2018-Apr-10 19:01N 68°48' E 016°33'0 0.0
2018-Apr-10 18:28N 68°48' E 016°33'0 0.0
2018-Apr-10 17:58N 68°48' E 016°33'0 0.0
2018-Apr-10 17:28N 68°48' E 016°33'0 0.0
2018-Apr-10 16:58N 68°48' E 016°33'  
Track history (hours):
 
Tides and Currents Weather Stations Pressure Air Temp Water Temp Dewpoint Dewpoint Depression Visibility Wind Speed Wind Dir Waves Ship Positions

Lifjell

Last reported at 2018-Apr-20 16:30 UTC. Time now 2018-Apr-20 16:47 UTC.
Position N 68°17' E 015°45'.

Length 63 m; draft 5.2 m.

Type: Cargo ship. MMSI: 259091000.

Date/timePositionNaut miles runAvg speedWind from/ knotsBaromVisibWave heightAir tempDewpointWater temp
2018-Apr-20 16:30N 68°17' E 015°45'5 9.3
2018-Apr-20 16:00N 68°20' E 015°54'5 9.8
2018-Apr-20 15:30N 68°24' E 016°02'5 9.6
2018-Apr-20 15:00N 68°29' E 016°06'5 9.1
2018-Apr-20 14:29N 68°33' E 016°13'4 8.5
2018-Apr-20 14:00N 68°34' E 016°24'3 6.7
2018-Apr-20 13:29N 68°35' E 016°32'4 9.2
2018-Apr-20 13:00N 68°39' E 016°37'5 9.3
2018-Apr-20 12:29N 68°42' E 016°49'5 9.6
2018-Apr-20 12:00N 68°44' E 017°00'4 7.4
2018-Apr-20 11:30N 68°46' E 017°09'0 0.0
2018-Apr-20 11:00N 68°46' E 017°09'0 0.1
2018-Apr-20 10:29N 68°46' E 017°09'0 0.0
2018-Apr-20 09:59N 68°46' E 017°09'0 0.0
2018-Apr-20 09:30N 68°46' E 017°09'2 4.4
2018-Apr-20 08:59N 68°44' E 017°04'4 7.3
2018-Apr-20 08:30N 68°44' E 016°55'0 0.0
2018-Apr-20 08:00N 68°44' E 016°55'0 0.0
2018-Apr-20 07:29N 68°44' E 016°55'0 0.0
2018-Apr-20 07:00N 68°44' E 016°55'0 0.0
2018-Apr-20 06:30N 68°44' E 016°55'0 0.0
2018-Apr-20 06:00N 68°44' E 016°55'0 0.9
2018-Apr-20 05:30N 68°44' E 016°56'0 0.7
2018-Apr-20 05:00N 68°44' E 016°57'1 1.2
2018-Apr-20 04:31N 68°43' E 016°59'0 0.3
2018-Apr-20 04:00N 68°43' E 016°58'0 0.3
2018-Apr-20 03:30N 68°44' E 016°59'0 0.9
2018-Apr-20 03:00N 68°44' E 016°60'1 3.0
2018-Apr-20 02:30N 68°44' E 017°04'0 0.6
2018-Apr-20 02:00N 68°44' E 017°04'0 0.0
2018-Apr-20 01:30N 68°44' E 017°04'0 0.5
2018-Apr-20 01:00N 68°44' E 017°05'2 3.4
2018-Apr-20 00:30N 68°44' E 017°09'2 4.0
2018-Apr-19 23:59N 68°44' E 017°15'2 4.1
2018-Apr-19 23:30N 68°44' E 017°20'2 0.8
2018-Apr-19 20:57N 68°43' E 017°26'2 4.2
2018-Apr-19 20:30N 68°44' E 017°21'0 0.0
2018-Apr-19 20:00N 68°44' E 017°21'0 0.0
2018-Apr-19 19:30N 68°44' E 017°21'0 0.0
2018-Apr-19 19:00N 68°44' E 017°21'1 1.6
2018-Apr-19 18:30N 68°44' E 017°19'3 5.3
2018-Apr-19 18:00N 68°46' E 017°14'2 4.9
2018-Apr-19 17:30N 68°48' E 017°19'3 6.1
2018-Apr-19 17:00N 68°50' E 017°25'3 6.2
2018-Apr-19 16:30N 68°52' E 017°31'3 6.0
2018-Apr-19 16:00N 68°54' E 017°38'0 0.9
2018-Apr-19 15:30N 68°54' E 017°39'2 3.3
2018-Apr-19 15:00N 68°54' E 017°43'1 1.7
2018-Apr-19 14:30N 68°54' E 017°41'0 0.4
2018-Apr-19 14:00N 68°54' E 017°41'0 0.0
2018-Apr-19 13:30N 68°54' E 017°41'0 0.0
2018-Apr-19 13:00N 68°54' E 017°41'1 2.0
2018-Apr-19 12:30N 68°54' E 017°39'4 9.1
2018-Apr-19 12:00N 68°51' E 017°29'5 7.1
2018-Apr-19 11:22N 68°48' E 017°37'1 0.2
2018-Apr-19 08:17N 68°47' E 017°38'0 0.0
2018-Apr-19 06:53N 68°47' E 017°38'0 0.1
2018-Apr-19 06:30N 68°47' E 017°39'1 1.3
2018-Apr-19 06:00N 68°48' E 017°37'1 1.9
2018-Apr-19 05:23N 68°48' E 017°35'1 3.0
2018-Apr-19 04:58N 68°49' E 017°32'2 3.1
2018-Apr-19 04:28N 68°50' E 017°28'1 2.0
2018-Apr-19 04:00N 68°50' E 017°26'0 0.4
2018-Apr-19 03:30N 68°50' E 017°26'0 0.4
2018-Apr-19 03:00N 68°50' E 017°27'0 0.5
2018-Apr-19 02:30N 68°50' E 017°27'1 1.1
2018-Apr-19 02:00N 68°50' E 017°25'0 0.5
2018-Apr-19 01:30N 68°50' E 017°25'0 0.4
2018-Apr-19 01:00N 68°50' E 017°25'1 1.4
2018-Apr-19 00:30N 68°49' E 017°23'2 3.9
2018-Apr-19 00:00N 68°48' E 017°19'2 4.0
2018-Apr-18 23:29N 68°47' E 017°15'2 3.3
2018-Apr-18 23:00N 68°45' E 017°15'2 3.4
2018-Apr-18 22:30N 68°44' E 017°19'2 3.4
2018-Apr-18 22:00N 68°44' E 017°24'1 0.4
2018-Apr-18 19:57N 68°43' E 017°26'4 8.5
2018-Apr-18 19:30N 68°45' E 017°16'4 8.8
2018-Apr-18 19:00N 68°48' E 017°10'4 9.0
2018-Apr-18 18:30N 68°52' E 017°03'4 8.5
2018-Apr-18 18:00N 68°52' E 016°51'4 8.6
2018-Apr-18 17:30N 68°51' E 016°40'1 1.4
2018-Apr-18 17:00N 68°52' E 016°40'0 0.0
2018-Apr-18 16:30N 68°52' E 016°40'0 0.0
2018-Apr-18 16:00N 68°52' E 016°40'0 0.3
2018-Apr-18 15:30N 68°52' E 016°40'0 0.3
2018-Apr-18 15:00N 68°52' E 016°40'1 2.6
2018-Apr-18 14:30N 68°51' E 016°38'3 6.6
2018-Apr-18 14:00N 68°48' E 016°33'0 0.0
2018-Apr-18 13:28N 68°48' E 016°33'0 0.0
2018-Apr-18 12:58N 68°48' E 016°33'0 0.0
2018-Apr-18 12:28N 68°48' E 016°33'0 0.0
2018-Apr-18 11:58N 68°48' E 016°33'0 0.0
2018-Apr-18 11:28N 68°48' E 016°33'0 0.0
2018-Apr-18 10:58N 68°48' E 016°33'0 0.0
2018-Apr-18 10:28N 68°48' E 016°33'0 0.0
2018-Apr-18 09:58N 68°48' E 016°33'0 0.0
2018-Apr-18 09:28N 68°48' E 016°33'0 0.0
2018-Apr-18 08:58N 68°48' E 016°33'0 0.0
2018-Apr-18 08:28N 68°48' E 016°33'0 0.0
2018-Apr-18 07:58N 68°48' E 016°33'0 0.0
2018-Apr-18 07:28N 68°48' E 016°33'0 0.0
2018-Apr-18 06:58N 68°48' E 016°33'0 0.0
2018-Apr-18 06:28N 68°48' E 016°33'0 0.0
2018-Apr-18 05:58N 68°48' E 016°33'0 0.0
2018-Apr-18 05:28N 68°48' E 016°33'0 0.0
2018-Apr-18 04:58N 68°48' E 016°33'0 0.0
2018-Apr-18 04:28N 68°48' E 016°33'0 0.0
2018-Apr-18 03:58N 68°48' E 016°33'0 0.0
2018-Apr-18 03:28N 68°48' E 016°33'0 0.0
2018-Apr-18 02:58N 68°48' E 016°33'0 0.0
2018-Apr-18 02:28N 68°48' E 016°33'0 0.0
2018-Apr-18 01:58N 68°48' E 016°33'0 0.0
2018-Apr-18 01:28N 68°48' E 016°33'0 0.0
2018-Apr-18 00:58N 68°48' E 016°33'0 0.0
2018-Apr-18 00:28N 68°48' E 016°33'0 0.0
2018-Apr-17 23:58N 68°48' E 016°33'0 0.0
2018-Apr-17 23:28N 68°48' E 016°33'0 0.0
2018-Apr-17 22:58N 68°48' E 016°33'0 0.0
2018-Apr-17 22:28N 68°48' E 016°33'0 0.0
2018-Apr-17 21:58N 68°48' E 016°33'0 0.0
2018-Apr-17 21:28N 68°48' E 016°33'0 0.0
2018-Apr-17 20:58N 68°48' E 016°33'0 0.0
2018-Apr-17 20:28N 68°48' E 016°33'0 0.0
2018-Apr-17 19:58N 68°48' E 016°33'0 0.0
2018-Apr-17 19:28N 68°48' E 016°33'0 0.0
2018-Apr-17 18:58N 68°48' E 016°33'0 0.0
2018-Apr-17 18:28N 68°48' E 016°33'0 0.0
2018-Apr-17 18:00N 68°48' E 016°33'0 0.0
2018-Apr-17 17:30N 68°48' E 016°33'0 0.0
2018-Apr-17 17:00N 68°48' E 016°33'0 0.0
2018-Apr-17 16:29N 68°48' E 016°33'0 0.0
2018-Apr-17 16:00N 68°48' E 016°33'0 0.0
2018-Apr-17 15:30N 68°48' E 016°33'0 0.0
2018-Apr-17 15:00N 68°48' E 016°33'0 0.0
2018-Apr-17 14:30N 68°48' E 016°33'0 0.0
2018-Apr-17 14:00N 68°48' E 016°33'0 0.0
2018-Apr-17 13:30N 68°48' E 016°33'0 0.0
2018-Apr-17 13:00N 68°48' E 016°33'0 0.0
2018-Apr-17 12:30N 68°48' E 016°33'0 0.0
2018-Apr-17 12:00N 68°48' E 016°33'0 0.0
2018-Apr-17 11:30N 68°48' E 016°33'0 0.0
2018-Apr-17 11:00N 68°48' E 016°33'0 0.0
2018-Apr-17 10:30N 68°48' E 016°33'0 0.0
2018-Apr-17 10:00N 68°48' E 016°33'0 0.0
2018-Apr-17 09:29N 68°48' E 016°33'0 0.0
2018-Apr-17 09:00N 68°48' E 016°33'0 0.0
2018-Apr-17 08:30N 68°48' E 016°33'0 0.0
2018-Apr-17 07:59N 68°48' E 016°33'0 0.0
2018-Apr-17 07:30N 68°48' E 016°33'0 0.0
2018-Apr-17 07:00N 68°48' E 016°33'0 0.0
2018-Apr-17 06:30N 68°48' E 016°33'0 0.0
2018-Apr-17 06:00N 68°48' E 016°33'0 0.0
2018-Apr-17 05:30N 68°48' E 016°33'0 0.0
2018-Apr-17 05:00N 68°48' E 016°33'2 3.3
2018-Apr-17 04:30N 68°49' E 016°37'1 2.9
2018-Apr-17 04:00N 68°50' E 016°40'3 5.5
2018-Apr-17 03:30N 68°51' E 016°47'3 6.6
2018-Apr-17 03:00N 68°52' E 016°56'3 5.8
2018-Apr-17 02:30N 68°52' E 017°04'4 6.9
2018-Apr-17 01:59N 68°49' E 017°09'3 6.2
2018-Apr-17 01:29N 68°46' E 017°11'1 1.8
2018-Apr-17 00:59N 68°46' E 017°09'0 0.0
2018-Apr-17 00:29N 68°46' E 017°09'0 0.1
2018-Apr-16 23:58N 68°46' E 017°09'0 0.0
2018-Apr-16 23:30N 68°46' E 017°09'1 1.4
2018-Apr-16 23:00N 68°45' E 017°08'4 9.2
2018-Apr-16 22:30N 68°44' E 016°56'1 1.2
2018-Apr-16 21:59N 68°44' E 016°55'0 0.0
2018-Apr-16 21:29N 68°44' E 016°55'0 0.0
2018-Apr-16 21:00N 68°44' E 016°55'0 0.0
2018-Apr-16 20:30N 68°44' E 016°55'0 0.0
2018-Apr-16 20:00N 68°44' E 016°55'0 0.0
2018-Apr-16 19:30N 68°44' E 016°55'1 1.9
2018-Apr-16 19:00N 68°44' E 016°57'3 6.0
2018-Apr-16 18:29N 68°44' E 017°05'4 8.3
2018-Apr-16 18:00N 68°47' E 017°15'4 8.2
2018-Apr-16 17:30N 68°49' E 017°24'3 5.6
2018-Apr-16 17:00N 68°51' E 017°29'2 3.8
2018-Apr-16 16:30N 68°52' E 017°33'2 3.5
2018-Apr-16 16:00N 68°54' E 017°36'1 2.9
2018-Apr-16 15:30N 68°54' E 017°40'0 0.9
2018-Apr-16 15:00N 68°54' E 017°41'0 0.0
2018-Apr-16 14:29N 68°54' E 017°41'0 0.0
2018-Apr-16 14:00N 68°54' E 017°41'0 0.0
2018-Apr-16 13:30N 68°54' E 017°41'2 4.3
2018-Apr-16 13:00N 68°53' E 017°36'5 9.0
2018-Apr-16 12:30N 68°50' E 017°28'5 9.0
2018-Apr-16 11:57N 68°47' E 017°39'0 0.7
2018-Apr-16 11:30N 68°47' E 017°38'0 0.0
2018-Apr-16 06:56N 68°47' E 017°38'4 7.9
2018-Apr-16 06:29N 68°49' E 017°30'4 8.9
2018-Apr-16 06:00N 68°48' E 017°19'4 7.2
2018-Apr-16 05:30N 68°44' E 017°19'3 0.2
2018-Apr-15 12:36N 68°42' E 017°27'1 1.6
2018-Apr-15 12:03N 68°43' E 017°27'0 2.1
2018-Apr-15 12:00N 68°43' E 017°27'0 0.1
2018-Apr-15 08:54N 68°43' E 017°26'2 4.1
2018-Apr-15 08:28N 68°44' E 017°21'0 0.0
2018-Apr-15 07:58N 68°44' E 017°21'0 0.0
2018-Apr-15 07:28N 68°44' E 017°21'0 0.0
2018-Apr-15 07:00N 68°44' E 017°21'3 6.3
2018-Apr-15 06:30N 68°46' E 017°14'4 8.4
2018-Apr-15 06:00N 68°49' E 017°22'5 9.7
2018-Apr-15 05:30N 68°52' E 017°32'4 8.7
2018-Apr-15 05:00N 68°54' E 017°42'0 0.5
2018-Apr-15 04:29N 68°54' E 017°43'0 0.0
2018-Apr-15 03:47N 68°54' E 017°43'0 0.0
2018-Apr-15 03:29N 68°54' E 017°43'0 0.0
2018-Apr-15 02:59N 68°54' E 017°43'0 0.0
2018-Apr-15 02:29N 68°54' E 017°43'0 0.0
2018-Apr-15 01:59N 68°54' E 017°43'0 0.0
2018-Apr-15 01:29N 68°54' E 017°43'0 0.0
2018-Apr-15 00:59N 68°54' E 017°43'0 0.0
2018-Apr-15 00:29N 68°54' E 017°43'0 0.0
2018-Apr-14 23:53N 68°54' E 017°43'0 0.0
2018-Apr-14 23:23N 68°54' E 017°43'0 0.0
2018-Apr-14 22:53N 68°54' E 017°43'0 0.0
2018-Apr-14 22:29N 68°54' E 017°43'0 0.0
2018-Apr-14 21:47N 68°54' E 017°43'0 0.0
2018-Apr-14 21:29N 68°54' E 017°43'0 0.0
2018-Apr-14 20:53N 68°54' E 017°43'0 0.0
2018-Apr-14 20:29N 68°54' E 017°43'0 0.0
2018-Apr-14 19:53N 68°54' E 017°43'0 0.0
2018-Apr-14 19:29N 68°54' E 017°43'0 0.0
2018-Apr-14 18:59N 68°54' E 017°43'0 0.0
2018-Apr-14 18:17N 68°54' E 017°43'0 0.0
2018-Apr-14 17:59N 68°54' E 017°43'0 0.0
2018-Apr-14 17:29N 68°54' E 017°43'0 0.0
2018-Apr-14 16:59N 68°54' E 017°43'0 0.0
2018-Apr-14 16:23N 68°54' E 017°43'0 0.0
2018-Apr-14 15:59N 68°54' E 017°43'0 0.0
2018-Apr-14 15:17N 68°54' E 017°43'0 0.0
2018-Apr-14 14:47N 68°54' E 017°43'0 0.0
2018-Apr-14 14:23N 68°54' E 017°43'0 0.0
2018-Apr-14 13:35N 68°54' E 017°43'0 0.0
2018-Apr-14 13:23N 68°54' E 017°43'0 0.0
2018-Apr-14 12:59N 68°54' E 017°43'0 0.0
2018-Apr-14 12:23N 68°54' E 017°43'0 0.0
2018-Apr-14 11:59N 68°54' E 017°43'0 0.0
2018-Apr-14 11:29N 68°54' E 017°43'0 0.0
2018-Apr-14 10:59N 68°54' E 017°43'0 0.0
2018-Apr-14 10:29N 68°54' E 017°43'0 0.0
2018-Apr-14 09:53N 68°54' E 017°43'0 0.0
2018-Apr-14 08:23N 68°54' E 017°43'0 0.0
2018-Apr-14 07:59N 68°54' E 017°43'0 0.0
2018-Apr-14 07:29N 68°54' E 017°43'0 0.0
2018-Apr-14 06:59N 68°54' E 017°43'0 0.0
2018-Apr-14 06:11N 68°54' E 017°43'0 0.0
2018-Apr-14 05:59N 68°54' E 017°43'0 0.0
2018-Apr-14 05:29N 68°54' E 017°43'0 0.0
2018-Apr-14 04:53N 68°54' E 017°43'0 0.0
2018-Apr-14 04:29N 68°54' E 017°43'0 0.0
2018-Apr-14 03:59N 68°54' E 017°43'0 0.0
2018-Apr-14 03:29N 68°54' E 017°43'0 0.0
2018-Apr-14 02:59N 68°54' E 017°43'0 0.0
2018-Apr-14 02:29N 68°54' E 017°43'0 0.0
2018-Apr-14 01:59N 68°54' E 017°43'0 0.0
2018-Apr-14 01:29N 68°54' E 017°43'0 0.0
2018-Apr-14 00:59N 68°54' E 017°43'0 0.0
2018-Apr-14 00:26N 68°54' E 017°43'0 0.0
2018-Apr-13 23:59N 68°54' E 017°43'0 0.0
2018-Apr-13 23:29N 68°54' E 017°43'0 0.0
2018-Apr-13 22:59N 68°54' E 017°43'0 0.0
2018-Apr-13 22:29N 68°54' E 017°43'0 0.0
2018-Apr-13 21:59N 68°54' E 017°43'0 0.0
2018-Apr-13 21:29N 68°54' E 017°43'0 0.0
2018-Apr-13 20:53N 68°54' E 017°43'0 0.0
2018-Apr-13 20:29N 68°54' E 017°43'0 0.0
2018-Apr-13 19:59N 68°54' E 017°43'0 0.0
2018-Apr-13 19:29N 68°54' E 017°43'0 0.0
2018-Apr-13 18:59N 68°54' E 017°43'0 0.0
2018-Apr-13 18:29N 68°54' E 017°43'0 0.0
2018-Apr-13 17:59N 68°54' E 017°43'0 0.0
2018-Apr-13 17:29N 68°54' E 017°43'0 0.0
2018-Apr-13 16:59N 68°54' E 017°43'0 0.0
2018-Apr-13 16:29N 68°54' E 017°43'0 0.0
2018-Apr-13 15:59N 68°54' E 017°43'0 0.0
2018-Apr-13 15:29N 68°54' E 017°43'0 0.0
2018-Apr-13 14:56N 68°54' E 017°43'0 0.5
2018-Apr-13 14:30N 68°55' E 017°43'0 0.1
2018-Apr-13 14:00N 68°55' E 017°43'1 1.9
2018-Apr-13 13:30N 68°54' E 017°41'0 0.0
2018-Apr-13 13:00N 68°54' E 017°41'0 0.0
2018-Apr-13 12:30N 68°54' E 017°41'0 0.0
2018-Apr-13 12:00N 68°54' E 017°41'2 3.2
2018-Apr-13 11:30N 68°54' E 017°37'5 9.0
2018-Apr-13 11:00N 68°51' E 017°28'5 1.2
2018-Apr-13 06:41N 68°47' E 017°38'0 1.9
2018-Apr-13 06:30N 68°47' E 017°38'0 0.3
2018-Apr-13 05:56N 68°47' E 017°38'0 0.4
2018-Apr-13 05:29N 68°47' E 017°38'1 1.8
2018-Apr-13 04:52N 68°48' E 017°35'1 2.3
2018-Apr-13 04:27N 68°49' E 017°33'2 3.4
2018-Apr-13 04:00N 68°49' E 017°30'2 3.4
2018-Apr-13 03:30N 68°50' E 017°25'2 3.4
2018-Apr-13 03:00N 68°49' E 017°22'2 3.9
2018-Apr-13 02:30N 68°47' E 017°18'2 4.8
2018-Apr-13 02:00N 68°45' E 017°15'2 5.1
2018-Apr-13 01:30N 68°44' E 017°21'2 0.7
2018-Apr-12 22:34N 68°43' E 017°26'1 8.3
2018-Apr-12 22:29N 68°44' E 017°25'4 8.2
2018-Apr-12 22:00N 68°45' E 017°14'4 8.7
2018-Apr-12 21:30N 68°49' E 017°09'4 8.6
2018-Apr-12 21:00N 68°53' E 017°02'4 8.7
2018-Apr-12 20:29N 68°52' E 016°50'4 7.4
2018-Apr-12 20:00N 68°52' E 016°40'0 0.4
2018-Apr-12 19:30N 68°52' E 016°40'0 0.0
2018-Apr-12 19:00N 68°52' E 016°40'0 0.0
2018-Apr-12 18:30N 68°52' E 016°40'0 0.0
2018-Apr-12 18:00N 68°52' E 016°40'0 0.0
2018-Apr-12 17:30N 68°52' E 016°40'0 0.0
2018-Apr-12 16:59N 68°52' E 016°40'0 0.0
2018-Apr-12 16:30N 68°52' E 016°40'0 0.0
2018-Apr-12 16:00N 68°52' E 016°40'0 0.0
2018-Apr-12 15:30N 68°52' E 016°40'0 0.0
2018-Apr-12 15:00N 68°52' E 016°40'0 0.0
2018-Apr-12 14:30N 68°52' E 016°40'0 0.0
2018-Apr-12 14:00N 68°52' E 016°40'1 1.5
2018-Apr-12 13:30N 68°51' E 016°40'2 3.7
2018-Apr-12 13:00N 68°51' E 016°45'2 4.5
2018-Apr-12 12:30N 68°52' E 016°51'3 5.7
2018-Apr-12 12:00N 68°52' E 016°59'2 4.9
2018-Apr-12 11:30N 68°51' E 017°05'3 5.3
2018-Apr-12 11:00N 68°49' E 017°09'2 5.0
2018-Apr-12 10:30N 68°47' E 017°12'2 3.1
2018-Apr-12 10:00N 68°46' E 017°09'0 0.1
2018-Apr-12 09:30N 68°46' E 017°09'0 0.0
2018-Apr-12 09:00N 68°46' E 017°09'0 0.1
2018-Apr-12 08:30N 68°46' E 017°09'0 0.6
2018-Apr-12 08:00N 68°45' E 017°09'5 9.0
2018-Apr-12 07:30N 68°44' E 016°57'1 2.3
2018-Apr-12 07:00N 68°44' E 016°54'0 0.0
2018-Apr-12 06:30N 68°44' E 016°54'0 0.0
2018-Apr-12 05:59N 68°44' E 016°54'0 0.0
2018-Apr-12 05:30N 68°44' E 016°54'0 0.0
2018-Apr-12 05:00N 68°44' E 016°54'1 2.0
2018-Apr-12 04:29N 68°43' E 016°52'4 8.1
2018-Apr-12 04:00N 68°46' E 016°43'5 9.2
2018-Apr-12 03:30N 68°48' E 016°33'0 0.3
2018-Apr-12 02:58N 68°48' E 016°33'0 0.0
2018-Apr-12 02:28N 68°48' E 016°33'0 0.0
2018-Apr-12 01:58N 68°48' E 016°33'0 0.0
2018-Apr-12 01:31N 68°48' E 016°33'0 0.0
2018-Apr-12 00:58N 68°48' E 016°33'0 0.0
2018-Apr-12 00:31N 68°48' E 016°33'0 0.0
2018-Apr-12 00:01N 68°48' E 016°33'0 0.0
2018-Apr-11 23:31N 68°48' E 016°33'0 0.0
2018-Apr-11 22:58N 68°48' E 016°33'0 0.0
2018-Apr-11 22:27N 68°48' E 016°33'0 0.0
2018-Apr-11 21:57N 68°48' E 016°33'0 0.0
2018-Apr-11 21:31N 68°48' E 016°33'0 0.0
2018-Apr-11 20:58N 68°48' E 016°33'0 0.0
2018-Apr-11 20:31N 68°48' E 016°33'0 0.0
2018-Apr-11 20:01N 68°48' E 016°33'0 0.7
2018-Apr-11 19:30N 68°48' E 016°34'1 1.2
2018-Apr-11 19:00N 68°48' E 016°34'0 0.0
2018-Apr-11 18:30N 68°48' E 016°34'0 0.0
2018-Apr-11 18:00N 68°48' E 016°34'1 1.2
2018-Apr-11 17:30N 68°48' E 016°33'0 0.5
2018-Apr-11 16:59N 68°48' E 016°33'0 0.0
2018-Apr-11 16:28N 68°48' E 016°33'0 0.0
2018-Apr-11 15:58N 68°48' E 016°33'0 0.0
2018-Apr-11 15:28N 68°48' E 016°33'0 0.0
2018-Apr-11 14:58N 68°48' E 016°33'0 0.0
2018-Apr-11 14:28N 68°48' E 016°33'0 0.0
2018-Apr-11 13:58N 68°48' E 016°33'0 0.0
2018-Apr-11 13:28N 68°48' E 016°33'0 0.0
2018-Apr-11 12:58N 68°48' E 016°33'0 0.0
2018-Apr-11 12:28N 68°48' E 016°33'0 0.0
2018-Apr-11 11:58N 68°48' E 016°33'0 0.0
2018-Apr-11 11:28N 68°48' E 016°33'0 0.0
2018-Apr-11 10:58N 68°48' E 016°33'0 0.0
2018-Apr-11 10:28N 68°48' E 016°33'0 0.0
2018-Apr-11 09:58N 68°48' E 016°33'0 0.0
2018-Apr-11 09:28N 68°48' E 016°33'0 0.0
2018-Apr-11 08:58N 68°48' E 016°33'0 0.0
2018-Apr-11 08:28N 68°48' E 016°33'0 0.0
2018-Apr-11 07:58N 68°48' E 016°33'0 0.0
2018-Apr-11 07:28N 68°48' E 016°33'0 0.0
2018-Apr-11 06:58N 68°48' E 016°33'0 0.0
2018-Apr-11 06:28N 68°48' E 016°33'0 0.0
2018-Apr-11 05:58N 68°48' E 016°33'0 0.0
2018-Apr-11 05:28N 68°48' E 016°33'0 0.0
2018-Apr-11 04:58N 68°48' E 016°33'0 0.0
2018-Apr-11 04:28N 68°48' E 016°33'0 0.0
2018-Apr-11 03:58N 68°48' E 016°33'0 0.0
2018-Apr-11 03:28N 68°48' E 016°33'0 0.0
2018-Apr-11 02:58N 68°48' E 016°33'0 0.0
2018-Apr-11 02:28N 68°48' E 016°33'0 0.0
2018-Apr-11 01:58N 68°48' E 016°33'0 0.0
2018-Apr-11 01:28N 68°48' E 016°33'0 0.0
2018-Apr-11 00:58N 68°48' E 016°33'0 0.0
2018-Apr-11 00:28N 68°48' E 016°33'0 0.0
2018-Apr-10 23:58N 68°48' E 016°33'0 0.0
2018-Apr-10 23:28N 68°48' E 016°33'0 0.0
2018-Apr-10 22:58N 68°48' E 016°33'0 0.0
2018-Apr-10 22:28N 68°48' E 016°33'0 0.0
2018-Apr-10 21:58N 68°48' E 016°33'0 0.0
2018-Apr-10 21:28N 68°48' E 016°33'0 0.0
2018-Apr-10 21:01N 68°48' E 016°33'0 0.0
2018-Apr-10 20:28N 68°48' E 016°33'0 0.0
2018-Apr-10 19:58N 68°48' E 016°33'0 0.0
2018-Apr-10 19:28N 68°48' E 016°33'0 0.0
2018-Apr-10 19:01N 68°48' E 016°33'0 0.0
2018-Apr-10 18:28N 68°48' E 016°33'0 0.0
2018-Apr-10 17:58N 68°48' E 016°33'0 0.0
2018-Apr-10 17:28N 68°48' E 016°33'0 0.0
2018-Apr-10 16:58N 68°48' E 016°33'  

Dump ship's entire track history